Thursday, January 18, 2018, 10:58 PM EST
Back to Local

KSMQ, Somerville Somerset Airport

Location: Bedminster, NJ, United States Lat: 40.617
Local Time: 10:58 PM EST ( 3:58 GMT) Lon: -74.667
Time Zone: US/Eastern Elev: 104 ft

Show me the last for .
Show Decoded

2018-01-18 21:53 METAR KSMQ 190253Z AUTO 00000KT 10SM CLR M08/M11 A3008 RMK AO2 SLP190 T10831106
                 53015 =
2018-01-18 20:53 METAR KSMQ 190153Z AUTO 00000KT 9SM CLR M08/M09 A3007 RMK AO2 SLP184 T10781094 =
2018-01-18 19:53 METAR KSMQ 190053Z AUTO 27003KT 10SM CLR M06/M10 A3004 RMK AO2 SLP177 T10561100
                 =
2018-01-18 18:53 METAR KSMQ 182353Z AUTO 28003KT 10SM CLR M04/M10 A3004 RMK AO2 SLP174 T10391100
                 10000 21044 53028 =
2018-01-18 17:53 METAR KSMQ 182253Z AUTO 30003KT 10SM CLR M03/M11 A3000 RMK AO2 SLP161 T10281111
                 =
2018-01-18 16:53 METAR KSMQ 182153Z AUTO 30007KT 10SM CLR M02/M11 A2996 RMK AO2 SLP150 T10171111
                 =
2018-01-18 15:53 METAR KSMQ 182053Z AUTO 31007G16KT 10SM CLR M01/M11 A2995 RMK AO2 SLP146
                 T10061111 55008 =
2018-01-18 14:53 METAR KSMQ 181953Z AUTO 30007KT 270V340 10SM CLR M01/M11 A2994 RMK AO2 SLP142
                 T10061106 =
2018-01-18 13:53 METAR KSMQ 181853Z AUTO 30007G16KT 260V320 10SM CLR M01/M11 A2995 RMK AO2 SLP145
                 T10111111 =
2018-01-18 12:53 METAR KSMQ 181753Z AUTO 30008KT 10SM CLR M02/M12 A2998 RMK AO2 SLP154 T10171117
                 11017 21122 58035 =
2018-01-18 11:53 METAR KSMQ 181653Z AUTO 33008KT 10SM CLR M03/M12 A3002 RMK AO2 SLP169 T10281122
                 =
2018-01-18 10:53 METAR KSMQ 181553Z AUTO 30006KT 10SM CLR M04/M12 A3007 RMK AO2 SLP184 T10391117
                 =
2018-01-18 09:53 METAR KSMQ 181453Z AUTO 31009KT 10SM CLR M06/M13 A3008 RMK AO2 SLP189 T10561128
                 55010 =
2018-01-18 08:53 METAR KSMQ 181353Z AUTO 33004KT 8SM CLR M08/M12 A3007 RMK AO2 SLP187 T10831117 =
2018-01-18 07:53 METAR KSMQ 181253Z AUTO 34003KT 7SM CLR M12/M13 A3009 RMK AO2 SLP193 T11221128 =
2018-01-18 06:53 METAR KSMQ 181153Z AUTO 17003KT 10SM CLR M11/M13 A3011 RMK AO2 SLP199 70005
                 I1000 I6000 T11061133 11094 21128 53020 =
2018-01-18 05:53 METAR KSMQ 181053Z AUTO 00000KT 9SM CLR M12/M14 A3004 RMK AO2 SLP174 T11221139 =
2018-01-18 04:53 METAR KSMQ 180953Z AUTO 00000KT 8SM CLR M13/M14 A3006 RMK AO2 SLP183 T11281139 =
2018-01-18 03:53 METAR KSMQ 180853Z AUTO 36005KT 9SM CLR M11/M13 A3005 RMK AO2 PRESFR SLP180
                 T11111133 58037 =
2018-01-18 02:53 METAR KSMQ 180753Z AUTO 00000KT 8SM CLR M12/M13 A3013 RMK AO2 SLP208 T11171133 =
2018-01-18 01:53 METAR KSMQ 180653Z AUTO 00000KT 8SM CLR M11/M13 A3015 RMK AO2 SLP212 T11061128 =
2018-01-18 00:53 METAR KSMQ 180553Z AUTO 32003KT 9SM CLR M10/M12 A3016 RMK AO2 SLP217 T11001122
                 11050 21106 58013 =
2018-01-17 23:53 METAR KSMQ 180453Z AUTO 00000KT 8SM CLR M10/M12 A3020 RMK AO2 SLP228 T11001122
                 400061106 =

Support USWX by starting your Amazon purchase here.